Time;durP1;ratioP1;P1;durP2;ratioP2;P2;SDS_P1;SDS_P2;PMS_P1;PMS_P2;Temp;Humidity;BMP_temperature;BMP_pressure;BME280_temperature;BME280_humidity;BME280_pressure;Samples;Min_cycle;Max_cycle;Signal;HPM_P1;HPM_P2
2023/01/19 00:02:51;;;;;;;69.30;31.97;;;;;;;0.89;100.00;99329.00;4914450;58;1138982;-69
2023/01/19 00:08:13;;;;;;;76.40;34.63;;;;;;;0.94;100.00;99331.70;4759014;58;1138968;-71
2023/01/19 00:13:04;;;;;;;113.87;44.33;;;;;;;1.00;100.00;99341.77;4736718;58;1138833;-71
2023/01/19 00:18:10;;;;;;;94.13;40.17;;;;;;;1.07;100.00;99342.73;4759372;58;1141051;-73
2023/01/19 00:23:17;;;;;;;93.87;41.57;;;;;;;1.09;100.00;99343.45;4717575;60;1139013;-73
2023/01/19 00:28:23;;;;;;;103.40;44.50;;;;;;;1.11;100.00;99344.22;4781772;59;1139276;-69
2023/01/19 00:33:29;;;;;;;146.43;60.93;;;;;;;1.18;100.00;99345.55;4815113;59;1141052;-74
2023/01/19 00:38:35;;;;;;;119.72;51.20;;;;;;;1.19;100.00;99347.23;4842748;59;1140773;-75
2023/01/19 00:43:40;;;;;;;121.03;44.70;;;;;;;1.13;100.00;99356.69;4815321;59;1140948;-74
2023/01/19 00:48:46;;;;;;;100.97;40.30;;;;;;;1.10;100.00;99362.90;4823996;59;1140909;-71
2023/01/19 00:53:52;;;;;;;86.87;37.47;;;;;;;1.08;100.00;99362.14;4834099;58;1140910;-73
2023/01/19 00:58:58;;;;;;;90.27;38.17;;;;;;;0.94;100.00;99390.27;4763132;59;1138971;-73
2023/01/19 01:04:04;;;;;;;83.67;34.33;;;;;;;0.78;100.00;99389.44;4861546;58;1138949;-72
2023/01/19 01:09:12;;;;;;;74.60;35.30;;;;;;;0.82;100.00;99381.02;4874992;59;1138905;-73
2023/01/19 01:14:18;;;;;;;78.87;34.83;;;;;;;0.88;100.00;99369.81;4834026;59;1138746;-73
2023/01/19 01:19:24;;;;;;;78.23;34.67;;;;;;;0.92;100.00;99361.34;4815394;59;1138844;-76
2023/01/19 01:24:30;;;;;;;80.30;35.90;;;;;;;0.90;100.00;99374.47;5028065;57;1138652;-73
2023/01/19 01:29:36;;;;;;;68.57;28.97;;;;;;;0.95;100.00;99388.50;5013104;57;1138726;-73
2023/01/19 01:34:42;;;;;;;79.03;33.90;;;;;;;0.95;100.00;99397.61;4946653;58;1138829;-73
2023/01/19 01:39:48;;;;;;;66.72;32.75;;;;;;;0.77;100.00;99402.54;4946607;58;1138994;-74
2023/01/19 01:44:58;;;;;;;83.35;34.33;;;;;;;0.66;100.00;99415.69;5002690;57;1138761;-69
2023/01/19 01:50:18;;;;;;;72.80;32.53;;;;;;;0.66;100.00;99432.60;5027622;57;1138918;-76
2023/01/19 01:55:25;;;;;;;59.07;28.60;;;;;;;0.65;100.00;99435.28;5010781;57;1138672;-74
2023/01/19 02:02:49;;;;;;;70.67;31.60;;;;;;;0.68;100.00;99437.73;4946270;57;1138758;-74
2023/01/19 02:05:39;;;;;;;53.80;26.63;;;;;;;0.70;100.00;99443.69;4947684;58;1139519;-72
2023/01/19 02:16:12;;;;;;;65.30;30.27;;;;;;;0.67;100.00;99450.35;4924303;58;1138735;-68
2023/01/19 02:21:43;;;;;;;67.80;31.13;;;;;;;0.70;100.00;99459.30;4924330;58;1138828;-72
2023/01/19 02:26:50;;;;;;;66.33;30.15;;;;;;;0.72;100.00;99465.27;4853745;58;1138994;-72
2023/01/19 02:31:58;;;;;;;65.87;30.80;;;;;;;0.74;100.00;99466.03;4813749;60;1139044;-72
2023/01/19 02:37:11;;;;;;;65.47;30.47;;;;;;;0.76;100.00;99467.25;4747151;60;1138909;-75
2023/01/19 02:42:44;;;;;;;70.60;31.80;;;;;;;0.86;100.00;99476.23;4773725;60;1138870;-70
2023/01/19 02:47:51;;;;;;;;;;;;;;;0.98;100.00;99477.69;4780728;60;1138904;-74
2023/01/19 02:53:01;;;;;;;72.10;34.77;;;;;;;1.09;100.00;99466.67;4870965;59;971992;-71
2023/01/19 02:58:35;;;;;;;70.27;33.57;;;;;;;1.12;100.00;99460.00;4944039;57;1136787;-73
2023/01/19 03:03:58;;;;;;;74.33;33.83;;;;;;;1.15;100.00;99462.90;4928608;57;1138940;-73
2023/01/19 03:09:30;;;;;;;73.83;31.93;;;;;;;1.17;100.00;99452.78;4932595;58;1138768;-73
2023/01/19 03:14:40;;;;;;;83.90;35.37;;;;;;;1.18;100.00;99455.77;4922860;58;1138704;-71
2023/01/19 03:19:49;;;;;;;72.57;35.37;;;;;;;1.17;100.00;99461.05;4918554;58;1138691;-71
2023/01/19 03:24:59;;;;;;;83.07;34.87;;;;;;;1.14;100.00;99461.22;4929237;57;1138926;-71
2023/01/19 03:30:18;;;;;;;76.30;32.97;;;;;;;1.16;100.00;99459.37;4958917;57;1138925;-68
2023/01/19 03:35:28;;;;;;;85.73;36.73;;;;;;;1.19;100.00;99461.81;5004554;57;1138718;-72
2023/01/19 03:40:35;;;;;;;108.10;41.13;;;;;;;1.14;100.00;99472.47;5005178;57;1138801;-75
2023/01/19 03:45:42;;;;;;;86.80;39.30;;;;;;;1.13;100.00;99482.97;5024143;57;1140755;-75
2023/01/19 03:50:48;;;;;;;96.70;39.27;;;;;;;1.14;100.00;99488.10;5004513;57;1138681;-70
2023/01/19 03:55:55;;;;;;;84.20;37.42;;;;;;;1.12;100.00;99485.20;4980508;57;1138697;-72
2023/01/19 04:01:03;;;;;;;82.93;36.50;;;;;;;1.07;100.00;99493.25;4947268;58;1138791;-68
2023/01/19 04:06:10;;;;;;;69.13;30.83;;;;;;;0.96;100.00;99499.52;4927809;58;1138754;-74
2023/01/19 04:11:16;;;;;;;69.77;30.13;;;;;;;0.90;100.00;99503.77;4927613;58;1138865;-72
2023/01/19 04:16:23;;;;;;;80.57;31.68;;;;;;;0.86;100.00;99508.30;4927935;58;1138956;-73
2023/01/19 04:21:28;;;;;;;78.13;34.37;;;;;;;0.75;100.00;99506.75;4944354;57;1138672;-73
2023/01/19 04:26:34;;;;;;;73.47;31.67;;;;;;;0.75;100.00;99509.80;4924279;57;1138874;-74
2023/01/19 04:31:40;;;;;;;71.90;30.97;;;;;;;0.74;100.00;99510.27;4923740;58;1138689;-71
2023/01/19 04:36:49;;;;;;;65.03;32.63;;;;;;;0.85;100.00;99512.28;4943191;58;1138841;-71
2023/01/19 04:41:56;;;;;;;87.12;39.00;;;;;;;0.92;100.00;99506.65;4923711;58;1138822;-70
2023/01/19 04:47:02;;;;;;;111.17;44.10;;;;;;;0.98;100.00;99512.83;4994372;56;1138970;-70
2023/01/19 04:52:08;;;;;;;111.45;47.93;;;;;;;1.03;100.00;99511.30;5007187;57;1150794;-73
2023/01/19 04:57:14;;;;;;;65.23;30.93;;;;;;;1.05;100.00;99519.41;4971500;57;1140894;-73
2023/01/19 05:02:20;;;;;;;62.30;27.93;;;;;;;0.92;100.00;99527.47;4927519;58;1138813;-70
2023/01/19 05:07:26;;;;;;;70.03;34.03;;;;;;;0.76;100.00;99536.21;4934112;57;1139014;-68
2023/01/19 05:12:33;;;;;;;64.10;28.27;;;;;;;0.63;100.00;99541.20;4963946;56;1138994;-72
2023/01/19 05:17:38;;;;;;;57.73;27.20;;;;;;;0.58;100.00;99542.77;4938999;56;1139258;-73
2023/01/19 05:22:50;;;;;;;54.47;26.50;;;;;;;0.54;100.00;99539.93;4924718;57;1138979;-70
2023/01/19 05:27:56;;;;;;;47.85;22.15;;;;;;;0.58;100.00;99545.36;4951108;57;1138979;-70
2023/01/19 05:33:02;;;;;;;53.67;25.23;;;;;;;0.60;100.00;99552.63;4939800;57;1138805;-72
2023/01/19 05:38:08;;;;;;;54.20;28.13;;;;;;;0.58;100.00;99558.83;4833958;58;1138673;-70
2023/01/19 05:43:15;;;;;;;50.40;26.42;;;;;;;0.62;100.00;99557.27;4833989;59;1138821;-71
2023/01/19 05:48:21;;;;;;;50.47;24.33;;;;;;;0.64;100.00;99558.03;4910534;59;1139021;-69
2023/01/19 05:53:28;;;;;;;48.43;23.00;;;;;;;0.67;100.00;99566.98;4974594;57;1138909;-70
2023/01/19 05:58:36;;;;;;;44.67;22.30;;;;;;;0.65;100.00;99556.27;5004467;57;1138862;-69
2023/01/19 06:03:42;;;;;;;50.90;23.57;;;;;;;0.61;100.00;99577.70;4964889;57;1138908;-69
2023/01/19 06:08:48;;;;;;;42.63;21.63;;;;;;;0.59;100.00;99582.17;4924400;57;1138815;-69
2023/01/19 06:13:55;;;;;;;49.33;22.60;;;;;;;0.59;100.00;99585.23;4923461;57;1138872;-72
2023/01/19 06:19:01;;;;;;;56.45;25.57;;;;;;;0.61;100.00;99591.20;4946179;57;1139266;-72
2023/01/19 06:24:07;;;;;;;51.42;25.80;;;;;;;0.66;100.00;99600.89;4942404;58;1138723;-71
2023/01/19 06:29:13;;;;;;;54.63;25.17;;;;;;;0.69;100.00;99605.94;4936005;58;1138814;-72
2023/01/19 06:34:20;;;;;;;47.50;22.83;;;;;;;0.74;100.00;99623.47;4941766;58;1138872;-71
2023/01/19 06:39:26;;;;;;;47.53;24.17;;;;;;;0.85;100.00;99626.34;4922998;57;1138676;-70
2023/01/19 06:44:32;;;;;;;56.28;28.50;;;;;;;0.99;100.00;99642.55;4952196;57;1138696;-71
2023/01/19 06:49:37;;;;;;;56.20;28.33;;;;;;;1.01;100.00;99659.77;5022672;56;1138897;-71
2023/01/19 06:54:45;;;;;;;53.77;26.23;;;;;;;0.96;100.00;99678.69;4997036;57;1138907;-70
2023/01/19 06:59:50;;;;;;;53.23;26.33;;;;;;;0.90;100.00;99686.83;4926609;58;1139017;-71
2023/01/19 07:04:57;;;;;;;185.30;89.28;;;;;;;0.88;100.00;99684.77;4941781;58;1139027;-74
2023/01/19 07:10:03;;;;;;;150.40;66.15;;;;;;;0.86;100.00;99689.66;4921980;58;1140946;-68
2023/01/19 07:15:10;;;;;;;66.22;34.75;;;;;;;0.91;100.00;99692.42;4922233;57;1140775;-75
2023/01/19 07:20:18;;;;;;;62.90;30.70;;;;;;;0.94;100.00;99701.34;4959847;57;1139015;-73
2023/01/19 07:25:25;;;;;;;52.10;25.70;;;;;;;0.96;100.00;99703.87;5023422;56;1138927;-70
2023/01/19 07:30:31;;;;;;;41.90;21.23;;;;;;;0.92;100.00;99721.87;4954779;57;1138912;-72
2023/01/19 07:35:37;;;;;;;42.40;21.53;;;;;;;0.84;100.00;99725.33;4923639;57;1138821;-70
2023/01/19 07:40:43;;;;;;;45.27;22.17;;;;;;;0.78;100.00;99723.02;4942842;58;1138823;-68
2023/01/19 07:45:48;;;;;;;49.23;24.93;;;;;;;0.72;100.00;99725.50;4955491;56;1138823;-71
2023/01/19 07:50:59;;;;;;;48.63;24.47;;;;;;;0.77;100.00;99717.44;5004604;56;1138630;-72
2023/01/19 07:56:06;;;;;;;54.25;25.02;;;;;;;0.77;100.00;99717.44;4995595;57;1138931;-73
2023/01/19 08:01:13;;;;;;;42.27;22.37;;;;;;;0.87;100.00;99715.61;4820462;59;1138689;-70
2023/01/19 08:06:23;;;;;;;51.97;26.20;;;;;;;0.91;100.00;99724.12;4778588;59;1138901;-71
2023/01/19 08:11:30;;;;;;;58.95;27.77;;;;;;;0.90;100.00;99728.48;4838113;59;1138867;-72
2023/01/19 08:16:36;;;;;;;59.67;30.63;;;;;;;0.98;100.00;99715.06;4786669;59;1138818;-68
2023/01/19 08:21:42;;;;;;;93.03;40.60;;;;;;;1.00;100.00;99719.27;4931625;58;1138943;-73
2023/01/19 08:26:49;;;;;;;102.92;44.08;;;;;;;1.01;100.00;99713.61;4902986;59;1138826;-70
2023/01/19 08:31:56;;;;;;;58.08;27.42;;;;;;;1.06;100.00;99719.43;4972110;56;1140798;-70
2023/01/19 08:37:01;;;;;;;56.50;25.10;;;;;;;0.96;100.00;99730.75;4966121;56;1139010;-73
2023/01/19 08:42:08;;;;;;;40.48;20.55;;;;;;;0.84;100.00;99732.69;4983976;57;1138923;-71
2023/01/19 08:47:16;;;;;;;48.20;24.63;;;;;;;0.77;100.00;99731.75;4978657;58;1139005;-71
2023/01/19 08:52:23;;;;;;;45.75;22.27;;;;;;;0.69;100.00;99737.35;4965784;58;1138659;-73
2023/01/19 08:57:29;;;;;;;62.20;27.20;;;;;;;0.67;100.00;99736.13;4965868;58;1138895;-71
2023/01/19 09:02:35;;;;;;;53.03;23.80;;;;;;;0.67;100.00;99742.63;5027056;57;1138743;-72
2023/01/19 09:07:41;;;;;;;46.07;20.67;;;;;;;0.59;100.00;99746.54;5013185;57;1138830;-71
2023/01/19 09:12:46;;;;;;;30.73;15.13;;;;;;;0.45;100.00;99751.12;5032591;57;1138777;-73
2023/01/19 09:17:53;;;;;;;27.70;13.90;;;;;;;0.35;100.00;99756.36;5054370;57;1138779;-76
2023/01/19 09:22:59;;;;;;;36.08;17.12;;;;;;;0.27;100.00;99759.34;4963837;57;1138723;-70
2023/01/19 09:28:08;;;;;;;34.33;16.87;;;;;;;0.25;100.00;99766.38;4938670;57;1138843;-71
2023/01/19 09:33:17;;;;;;;61.40;30.17;;;;;;;0.38;100.00;99777.03;4931536;57;1138855;-69
2023/01/19 09:38:24;;;;;;;38.60;16.77;;;;;;;0.48;100.00;99781.31;4942747;58;1139064;-75
2023/01/19 09:43:46;;;;;;;40.87;21.30;;;;;;;0.53;100.00;99786.70;4937326;57;1138766;-66
2023/01/19 09:48:58;;;;;;;37.30;17.13;;;;;;;0.60;100.00;99796.36;5004279;57;1138978;-73
2023/01/19 09:54:29;;;;;;;32.33;16.80;;;;;;;0.68;100.00;99798.96;5020233;57;1139144;-73
2023/01/19 09:59:35;;;;;;;29.63;13.23;;;;;;;0.76;100.00;99789.50;4923582;58;1138634;-72
2023/01/19 10:04:54;;;;;;;30.63;13.20;;;;;;;0.79;100.00;99782.81;4932622;57;1138719;-72
2023/01/19 10:10:19;;;;;;;48.10;23.73;;;;;;;0.79;100.00;99776.77;4952885;58;1138748;-71
2023/01/19 10:15:41;;;;;;;26.57;12.63;;;;;;;0.80;100.00;99768.88;4943577;56;1138837;-73
2023/01/19 10:20:54;;;;;;;25.93;12.70;;;;;;;0.79;100.00;99771.09;4948131;57;1138969;-72
2023/01/19 10:26:07;;;;;;;15.25;7.70;;;;;;;0.77;100.00;99778.14;4980992;57;1138689;-70
2023/01/19 10:31:14;;;;;;;23.50;10.53;;;;;;;0.78;100.00;99773.31;4914438;58;1136720;-70
2023/01/19 10:36:28;;;;;;;25.80;11.50;;;;;;;0.82;100.00;99790.48;4775884;59;1139162;-71
2023/01/19 10:41:50;;;;;;;30.43;12.67;;;;;;;0.88;100.00;99798.45;4777762;59;1138759;-69
2023/01/19 10:46:58;;;;;;;34.58;15.65;;;;;;;0.89;100.00;99792.33;4756627;59;1139025;-71
2023/01/19 10:52:07;;;;;;;29.12;14.43;;;;;;;0.87;100.00;99790.26;4846765;58;1138935;-72
2023/01/19 10:57:19;;;;;;;28.03;13.67;;;;;;;0.84;100.00;99787.34;4813641;58;1138824;-71
2023/01/19 11:02:30;;;;;;;27.43;11.57;;;;;;;0.83;100.00;99786.96;4828845;59;1138859;-74
2023/01/19 11:07:36;;;;;;;18.90;9.37;;;;;;;0.80;100.00;99777.99;4926267;57;1138877;-73
2023/01/19 11:13:15;;;;;;;23.50;12.30;;;;;;;0.76;100.00;99778.24;4932356;57;1136863;-84
2023/01/19 11:18:39;;;;;;;26.00;12.63;;;;;;;0.72;100.00;99776.70;4932618;57;1138988;-79
2023/01/19 11:23:51;;;;;;;23.37;10.03;;;;;;;0.72;100.00;99777.55;4979800;57;1138871;-84
2023/01/19 11:28:59;;;;;;;30.43;13.70;;;;;;;0.66;100.00;99776.07;4981788;57;1138821;-81
2023/01/19 11:34:10;;;;;;;28.70;13.50;;;;;;;0.68;100.00;99762.53;4988329;57;1138889;-75
2023/01/19 11:39:26;;;;;;;31.57;15.70;;;;;;;0.68;100.00;99762.98;4985656;57;1138849;-68
2023/01/19 11:44:41;;;;;;;26.33;12.13;;;;;;;0.68;100.00;99766.89;5026722;57;1138831;-69
2023/01/19 11:49:51;;;;;;;44.53;19.60;;;;;;;0.75;100.00;99767.45;4835636;58;1138973;-72
2023/01/19 11:55:16;;;;;;;28.37;15.23;;;;;;;0.80;100.00;99763.67;4877890;58;1138738;-76
2023/01/19 12:00:39;;;;;;;29.30;13.20;;;;;;;0.78;100.00;99764.66;4982626;57;1138981;-81
2023/01/19 12:05:48;;;;;;;40.13;15.23;;;;;;;0.83;100.00;99762.23;4979356;57;1138808;-85
2023/01/19 12:10:57;;;;;;;25.20;10.80;;;;;;;0.89;100.00;99767.14;4931087;57;1138936;-85
2023/01/19 12:16:19;;;;;;;30.88;15.65;;;;;;;0.87;100.00;99766.38;4963923;57;1138980;-75
2023/01/19 12:21:25;;;;;;;27.77;14.73;;;;;;;0.80;100.00;99770.19;4969030;57;1138881;-73
2023/01/19 12:26:57;;;;;;;31.43;12.83;;;;;;;0.80;100.00;99775.39;4957312;57;1139082;-74
2023/01/19 12:32:18;;;;;;;22.20;9.83;;;;;;;0.82;100.00;99774.02;4882313;57;1138770;-76
2023/01/19 12:37:42;;;;;;;27.27;16.17;;;;;;;0.76;100.00;99773.88;4905858;57;1136750;-80
2023/01/19 12:42:55;;;;;;;28.55;15.53;;;;;;;0.67;100.00;99779.06;4944220;57;1138709;-75
2023/01/19 12:48:05;;;;;;;23.30;11.80;;;;;;;0.61;100.00;99779.84;4941272;57;1139030;-68
2023/01/19 12:53:21;;;;;;;23.60;12.97;;;;;;;0.59;100.00;99785.11;4866862;58;1138810;-81
2023/01/19 12:58:27;;;;;;;50.00;35.43;;;;;;;0.58;100.00;99783.42;4931298;57;1138760;-75
2023/01/19 13:03:42;;;;;;;20.03;12.77;;;;;;;0.64;100.00;99780.96;4945211;58;1138614;-78
2023/01/19 13:08:59;;;;;;;29.10;14.30;;;;;;;0.60;100.00;99780.30;4924207;57;1138755;-80
2023/01/19 13:14:35;;;;;;;23.32;13.30;;;;;;;0.55;100.00;99785.33;4866632;57;1138850;-69
2023/01/19 13:19:51;;;;;;;30.23;15.80;;;;;;;0.49;100.00;99775.20;4893147;57;1138748;-75
2023/01/19 13:25:07;;;;;;;28.40;16.43;;;;;;;0.44;100.00;99771.55;4947037;57;1138950;-80
2023/01/19 13:30:17;;;;;;;24.60;15.53;;;;;;;0.47;100.00;99773.97;4954933;57;1138602;-83
2023/01/19 13:35:24;;;;;;;66.37;31.95;;;;;;;0.52;100.00;99768.09;4966601;57;1148458;-73
2023/01/19 13:40:38;;;;;;;76.80;32.45;;;;;;;0.58;100.00;99770.88;5029019;57;1138741;-86
2023/01/19 13:45:50;;;;;;;35.93;17.63;;;;;;;0.67;100.00;99763.45;4966653;57;1138646;-78
2023/01/19 13:51:03;;;;;;;23.00;13.07;;;;;;;0.77;100.00;99755.17;4995072;57;1138754;-67
2023/01/19 13:56:24;;;;;;;34.70;18.83;;;;;;;0.77;100.00;99759.92;4943587;57;1139006;-72
2023/01/19 14:01:31;;;;;;;27.63;14.20;;;;;;;0.81;100.00;99767.13;4956787;57;1138919;-79
2023/01/19 14:06:40;;;;;;;66.12;34.25;;;;;;;0.87;100.00;99766.38;4929656;57;1139159;-70
2023/01/19 14:12:05;;;;;;;110.83;42.37;;;;;;;0.94;100.00;99769.50;4923523;58;1138944;-80
2023/01/19 14:17:27;;;;;;;1158.88;344.70;;;;;;;1.03;100.00;99771.66;4912216;58;1140987;-83
2023/01/19 14:22:47;;;;;;;54.13;26.10;;;;;;;1.05;100.00;99775.88;4969242;58;1144922;-79
2023/01/19 14:28:12;;;;;;;55.60;25.83;;;;;;;1.00;100.00;99777.01;4950374;57;1151764;-75
2023/01/19 14:33:38;;;;;;;55.00;27.97;;;;;;;0.92;100.00;99777.38;4787193;59;1138808;-72
2023/01/19 14:38:52;;;;;;;36.20;21.23;;;;;;;0.95;100.00;99775.93;4942512;57;1138650;-78
2023/01/19 14:43:59;;;;;;;64.97;37.50;;;;;;;0.94;100.00;99772.94;4965322;57;1138776;-69
2023/01/19 14:49:07;;;;;;;233.85;64.70;;;;;;;0.96;100.00;99773.71;4969954;57;1138683;-88
2023/01/19 14:54:17;;;;;;;81.57;35.78;;;;;;;0.97;100.00;99771.95;4930420;57;1140885;-80
2023/01/19 14:59:22;;;;;;;100.57;40.47;;;;;;;0.91;100.00;99778.33;4959062;57;1138791;-70
2023/01/19 15:04:28;;;;;;;64.53;27.93;;;;;;;0.90;100.00;99782.30;5025050;57;1140850;-76
2023/01/19 15:09:34;;;;;;;171.47;58.40;;;;;;;0.78;100.00;99801.95;5004299;57;1139000;-84
2023/01/19 15:14:40;;;;;;;180.10;67.43;;;;;;;0.65;100.00;99780.89;4999694;56;1140816;-84
2023/01/19 15:19:45;;;;;;;105.77;44.60;;;;;;;0.58;100.00;99794.29;5005244;57;1140830;-75
2023/01/19 15:24:56;;;;;;;86.20;36.83;;;;;;;0.47;100.00;99796.08;4979613;57;1140811;-78
2023/01/19 15:29:59;;;;;;;85.17;36.10;;;;;;;0.35;100.00;99805.32;4934391;57;1138946;-79
2023/01/19 15:35:10;;;;;;;106.90;42.67;;;;;;;0.25;100.00;99809.73;4876157;58;1138682;-81
2023/01/19 15:40:17;;;;;;;85.80;36.90;;;;;;;0.19;100.00;99816.05;4888189;58;1140905;-82
2023/01/19 15:45:51;;;;;;;97.70;40.17;;;;;;;0.16;100.00;99814.04;4932512;58;1138784;-73
2023/01/19 15:50:58;;;;;;;80.60;40.73;;;;;;;0.06;100.00;99822.73;4928774;58;1138976;-77
2023/01/19 15:56:03;;;;;;;89.47;43.42;;;;;;;0.00;100.00;99826.93;4891578;58;1145943;-79
2023/01/19 16:01:16;;;;;;;81.00;38.53;;;;;;;-0.04;100.00;99839.67;4912107;58;1138937;-85
2023/01/19 16:06:24;;;;;;;123.90;58.70;;;;;;;-0.01;100.00;99835.64;4883324;58;1141019;-78
2023/01/19 16:11:32;;;;;;;200.57;94.87;;;;;;;-0.01;100.00;99840.38;4886079;58;1143011;-77
2023/01/19 16:16:38;;;;;;;194.53;86.20;;;;;;;-0.04;100.00;99841.81;4894948;58;1143040;-74
2023/01/19 16:21:44;;;;;;;125.37;56.20;;;;;;;0.00;100.00;99852.44;4890279;58;1143040;-77
2023/01/19 16:26:50;;;;;;;132.73;62.30;;;;;;;0.09;100.00;99844.70;4917000;58;1140831;-77
2023/01/19 16:31:56;;;;;;;113.13;52.43;;;;;;;0.09;100.00;99856.39;4906711;57;1141116;-75
2023/01/19 16:37:02;;;;;;;127.57;50.37;;;;;;;-0.08;100.00;99857.61;4934186;57;1140963;-75
2023/01/19 16:42:08;;;;;;;68.77;31.57;;;;;;;-0.22;100.00;99861.27;4959378;57;1143120;-78
2023/01/19 16:47:13;;;;;;;47.35;25.62;;;;;;;-0.36;100.00;99874.41;4941638;57;1140891;-76
2023/01/19 16:52:19;;;;;;;80.47;40.23;;;;;;;-0.49;100.00;99871.95;4935185;57;1140910;-81
2023/01/19 16:57:25;;;;;;;70.30;34.53;;;;;;;-0.49;100.00;99885.40;4955340;57;1140819;-81
2023/01/19 17:02:31;;;;;;;109.00;51.23;;;;;;;-0.45;100.00;99893.42;4953869;57;1140849;-74
2023/01/19 17:07:37;;;;;;;122.37;49.33;;;;;;;-0.43;100.00;99894.21;4982852;57;1142972;-78
2023/01/19 17:12:43;;;;;;;105.10;44.33;;;;;;;-0.43;100.00;99911.94;5002570;57;1142956;-73
2023/01/19 17:17:49;;;;;;;233.50;103.63;;;;;;;-0.48;100.00;99919.10;5004419;57;1142906;-80
2023/01/19 17:22:55;;;;;;;152.90;65.67;;;;;;;-0.54;100.00;99923.70;5003991;57;1145094;-71
2023/01/19 17:28:01;;;;;;;152.70;62.93;;;;;;;-0.59;100.00;99926.92;4972049;57;1142944;-81
2023/01/19 17:33:07;;;;;;;140.45;63.58;;;;;;;-0.62;100.00;99926.63;4943937;57;1142969;-79
2023/01/19 17:38:13;;;;;;;99.95;43.83;;;;;;;-0.64;100.00;99925.84;4982156;57;1142931;-69
2023/01/19 17:43:19;;;;;;;114.37;49.00;;;;;;;-0.64;100.00;99928.89;5007191;57;1141057;-74
2023/01/19 17:48:24;;;;;;;122.27;52.13;;;;;;;-0.63;100.00;99927.98;4954134;57;1142830;-73
2023/01/19 17:53:30;;;;;;;101.40;44.13;;;;;;;-0.68;100.00;99928.16;4981700;57;1143001;-73
2023/01/19 17:58:36;;;;;;;110.20;51.37;;;;;;;-0.70;100.00;99932.57;5015309;57;1143000;-70
2023/01/19 18:03:43;;;;;;;106.83;49.33;;;;;;;-0.75;100.00;99935.34;5035006;57;1143085;-79
2023/01/19 18:08:50;;;;;;;145.27;56.43;;;;;;;-0.80;100.00;99936.46;4937147;57;1143161;-80
2023/01/19 18:13:55;;;;;;;652.40;243.80;;;;;;;-0.79;100.00;99936.41;4930308;58;1143104;-74
2023/01/19 18:19:10;;;;;;;234.77;111.20;;;;;;;-0.72;100.00;99940.87;5309274;54;46916;-74
2023/01/19 18:24:15;;;;;;;231.60;95.90;;;;;;;-0.73;100.00;99937.89;5149027;54;1140930;-74
2023/01/19 18:29:21;;;;;;;75.50;38.90;;;;;;;-0.79;100.00;99957.17;4987827;57;1143224;-78
2023/01/19 18:34:27;;;;;;;87.23;39.37;;;;;;;-0.87;100.00;99954.47;4930571;58;1141233;-74
2023/01/19 18:39:33;;;;;;;76.23;36.37;;;;;;;-0.97;100.00;99952.70;4949733;58;1140989;-73
2023/01/19 18:44:39;;;;;;;82.30;37.40;;;;;;;-1.06;100.00;99948.70;4964088;57;1140989;-68
2023/01/19 18:49:44;;;;;;;72.73;36.90;;;;;;;-1.14;100.00;99941.69;4988023;57;1140812;-73
2023/01/19 18:54:50;;;;;;;107.37;49.10;;;;;;;-1.09;100.00;99931.14;5021369;57;1141164;-75
2023/01/19 18:59:56;;;;;;;386.03;144.10;;;;;;;-0.92;100.00;99939.55;4950473;57;1142901;-68
2023/01/19 19:05:02;;;;;;;158.83;72.20;;;;;;;-0.92;100.00;99939.55;4963873;57;1145254;-79
2023/01/19 19:10:10;;;;;;;245.67;96.13;;;;;;;-0.83;100.00;99931.39;4889740;57;1143083;-69
2023/01/19 19:15:16;;;;;;;313.60;122.37;;;;;;;-0.89;100.00;99935.06;4856699;57;1143189;-71
2023/01/19 19:20:22;;;;;;;258.93;95.53;;;;;;;-1.01;100.00;99928.22;4849166;57;1145110;-71
2023/01/19 19:25:28;;;;;;;118.50;53.07;;;;;;;-1.13;100.00;99935.59;4902259;57;1143043;-73
2023/01/19 19:30:36;;;;;;;88.77;44.47;;;;;;;-1.25;100.00;99958.13;4963537;57;1143139;-73
2023/01/19 19:35:41;;;;;;;91.40;42.33;;;;;;;-1.40;100.00;99966.49;5129633;55;1140827;-74
2023/01/19 19:40:47;;;;;;;83.43;41.80;;;;;;;-1.50;100.00;99970.31;5130824;55;1141023;-75
2023/01/19 19:46:11;;;;;;;87.63;42.57;;;;;;;-1.50;100.00;99963.37;5075773;55;1141077;-73
2023/01/19 19:51:24;;;;;;;110.60;52.53;;;;;;;-1.47;100.00;99972.80;5031645;55;1140968;-74
2023/01/19 19:56:33;;;;;;;141.20;64.63;;;;;;;-1.50;100.00;99972.91;5036760;56;1143102;-76
2023/01/19 20:01:39;;;;;;;125.18;54.70;;;;;;;-1.48;100.00;99965.92;5119431;55;1143037;-66
2023/01/19 20:06:47;;;;;;;156.53;67.57;;;;;;;-1.46;100.00;99980.52;5109441;55;1143096;-70
2023/01/19 20:11:53;;;;;;;176.83;63.53;;;;;;;-1.47;100.00;99990.50;5043091;55;1142910;-72
2023/01/19 20:16:59;;;;;;;197.80;76.43;;;;;;;-1.40;100.00;99988.54;5035262;56;1143042;-72
2023/01/19 20:22:06;;;;;;;104.00;43.80;;;;;;;-1.42;100.00;99992.94;5083623;56;1151367;-76
2023/01/19 20:27:13;;;;;;;118.35;46.98;;;;;;;-1.52;100.00;99990.27;5082272;55;1143051;-70
2023/01/19 20:32:19;;;;;;;131.52;51.18;;;;;;;-1.60;100.00;99997.48;5107843;55;1143063;-77
2023/01/19 20:37:25;;;;;;;139.47;45.87;;;;;;;-1.63;100.00;99995.00;5195232;55;1143102;-72
2023/01/19 20:42:31;;;;;;;92.37;38.80;;;;;;;-1.71;100.00;99997.89;5128894;55;1143227;-75
2023/01/19 20:47:37;;;;;;;85.07;37.77;;;;;;;-1.80;100.00;99996.45;5105943;55;1140875;-72
2023/01/19 20:52:43;;;;;;;96.50;42.43;;;;;;;-1.83;100.00;99994.41;5119266;56;1141060;-81
2023/01/19 20:57:50;;;;;;;482.10;162.20;;;;;;;-1.82;100.00;99994.36;5098870;55;1140938;-81
2023/01/19 21:02:57;;;;;;;363.10;118.23;;;;;;;-1.72;100.00;100000.08;5036985;56;1145083;-71
2023/01/19 21:08:04;;;;;;;262.38;88.10;;;;;;;-1.62;100.00;99992.81;5106250;56;1147402;-68
2023/01/19 21:13:11;;;;;;;151.53;54.67;;;;;;;-1.66;100.00;99990.77;5094749;55;1143142;-75
2023/01/19 21:18:17;;;;;;;136.95;52.38;;;;;;;-1.72;100.00;99996.64;5042495;56;1143231;-73
2023/01/19 21:23:25;;;;;;;98.83;45.63;;;;;;;-1.69;100.00;99995.24;5025107;56;1143361;-80
2023/01/19 21:28:32;;;;;;;102.83;46.40;;;;;;;-1.57;100.00;99999.98;5067434;56;1140994;-77
2023/01/19 21:33:40;;;;;;;238.33;88.67;;;;;;;-1.45;100.00;100006.85;5109574;56;1143046;-71
2023/01/19 21:38:46;;;;;;;242.65;91.22;;;;;;;-1.40;100.00;100016.22;5028456;56;1145111;-74
2023/01/19 21:43:53;;;;;;;197.50;77.27;;;;;;;-1.35;100.00;100029.84;5082944;56;1145154;-79
2023/01/19 21:49:03;;;;;;;248.07;90.90;;;;;;;-1.35;100.00;100039.77;5039528;55;1145097;-68
2023/01/19 21:54:08;;;;;;;199.80;71.90;;;;;;;-1.44;100.00;100041.41;5079858;56;1145314;-81
2023/01/19 21:59:15;;;;;;;190.20;70.17;;;;;;;-1.56;100.00;100057.42;5075594;56;1145136;-68
2023/01/19 22:04:21;;;;;;;269.77;99.87;;;;;;;-1.61;100.00;100069.24;5093257;56;1145479;-72
2023/01/19 22:09:27;;;;;;;213.50;75.07;;;;;;;-1.65;100.00;100063.76;4942923;57;1145186;-76
2023/01/19 22:14:33;;;;;;;289.07;90.80;;;;;;;-1.60;100.00;100070.09;4936518;57;1145187;-74
2023/01/19 22:19:39;;;;;;;250.82;91.35;;;;;;;-1.71;100.00;100075.66;5016383;56;1145143;-75
2023/01/19 22:24:45;;;;;;;190.67;65.60;;;;;;;-1.78;100.00;100076.75;5109556;56;1146210;-74
2023/01/19 22:29:51;;;;;;;236.50;84.07;;;;;;;-1.81;100.00;100085.92;5100730;56;1145297;-69
2023/01/19 22:34:58;;;;;;;262.00;90.80;;;;;;;-1.90;100.00;100097.45;5136253;55;1145237;-69
2023/01/19 22:40:05;;;;;;;186.63;72.13;;;;;;;-1.96;100.00;100096.80;5121077;55;1144976;-75
2023/01/19 22:45:11;;;;;;;164.37;60.17;;;;;;;-2.10;100.00;100084.31;5177556;55;1145101;-74
2023/01/19 22:50:17;;;;;;;168.13;58.05;;;;;;;-2.03;100.00;100096.17;5187996;55;1145311;-65
2023/01/19 22:55:23;;;;;;;145.45;51.00;;;;;;;-1.99;100.00;100099.08;5132752;55;1145244;-73
2023/01/19 23:00:29;;;;;;;117.67;43.70;;;;;;;-1.91;100.00;100097.06;5100563;56;1145250;-73
2023/01/19 23:05:38;;;;;;;116.07;43.33;;;;;;;-1.84;100.00;100084.75;5101256;56;1145128;-76